This is the latest recevied weather packets stored in our database for station/object E23XBQ-1. If no packets are shown the sender has not sent any weather packets the latest 10 day(s).
| Time | Temp. | Humidity | Pressure | Rain* | Wind** | Luminosity | Snow |
|---|---|---|---|---|---|---|---|
| 1778053355 | 36.67° C | 43% | 968 hPa | - | - | 0 W/m² | - |
| 1778052730 | 37.22° C | 41% | 968 hPa | - | - | 0 W/m² | - |
| 1778052105 | 38.33° C | 39% | 968 hPa | - | - | 0 W/m² | - |
| 1778051481 | 38.89° C | 38% | 969 hPa | - | - | 0 W/m² | - |
| 1778050856 | 39.44° C | 37% | 969 hPa | - | - | 0 W/m² | - |
| 1778050232 | 39.44° C | 36% | 969 hPa | - | - | 0 W/m² | - |
| 1778049607 | 39.44° C | 38% | 969 hPa | - | - | 0 W/m² | - |
| 1778048982 | 38.89° C | 39% | 970 hPa | - | - | 0 W/m² | - |
| 1778048541 | 38.89° C | 39% | 970 hPa | - | - | 0 W/m² | - |
| 1778047916 | 38.89° C | 39% | 970 hPa | - | - | 0 W/m² | - |
| 1778047292 | 38.33° C | 39% | 970 hPa | - | - | 0 W/m² | - |
| 1778046667 | 38.33° C | 41% | 971 hPa | - | - | 0 W/m² | - |
| 1778046042 | 38.33° C | 39% | 971 hPa | - | - | 0 W/m² | - |
| 1778045417 | 37.78° C | 39% | 971 hPa | - | - | 0 W/m² | - |
| 1778044793 | 37.22° C | 40% | 971 hPa | - | - | 0 W/m² | - |
| 1778044169 | 36.11° C | 42% | 971 hPa | - | - | 0 W/m² | - |
| 1778043543 | 35.56° C | 41% | 972 hPa | - | - | 0 W/m² | - |
| 1778042919 | 36.67° C | 38% | 972 hPa | - | - | 0 W/m² | - |
| 1778042295 | 36.11° C | 43% | 972 hPa | - | - | 0 W/m² | - |
| 1778041670 | 36.11° C | 41% | 972 hPa | - | - | 0 W/m² | - |
| 1778041046 | 36.11° C | 43% | 972 hPa | - | - | 0 W/m² | - |
| 1778040421 | 35.56° C | 44% | 972 hPa | - | - | 0 W/m² | - |
| 1778039796 | 35.56° C | 47% | 972 hPa | - | - | 0 W/m² | - |
| 1778039171 | 35.56° C | 46% | 972 hPa | - | - | 0 W/m² | - |
| 1778038546 | 35° C | 47% | 973 hPa | - | - | 0 W/m² | - |
* Rain since midnight (hover to see other rain measurements)
** Current wind speed in m/s (hover to see current wind gust speed)